Aviation Digital Data Service (ADDS)

Output produced by METARs form (2222 UTC 28 August 2016)
found at http://www.aviationweather.gov/adds/metars/
 
KROW 282151Z AUTO 14008KT 10SM CLR 30/15 A3006 RMK AO2 LTG DSNT SW AND NW SLP117 T03000150
KROW 282051Z 10SM CLR 28/15 A3008 RMK AO2 LTG DSNT W AND NW SLP125 T02830150 58021
KROW 281951Z 15008KT 10SM CLR 28/16 A3012 RMK AO2 SLP137 T02780156
KROW 281851Z 16007KT 10SM CLR 27/14 A3014 RMK AO2 SLP143 T02720144
KROW 281751Z 20007KT 10SM CLR 27/14 A3015 RMK AO2 SLP145 T02720144 10272 20178 56006
KROW 281651Z 18005KT 10SM BKN120 26/14 A3016 RMK AO2 SLP149 T02560139
KROW 281551Z 29004KT 10SM FEW120 24/14 A3016 RMK AO2 SLP149 T02440139
KROW 281451Z 28004KT 10SM FEW100 BKN120 21/16 A3017 RMK AO2 SLP156 T02110161 50007
KROW 281351Z 27004KT 10SM FEW070 19/16 A3017 RMK AO2 SLP160 T01940156
KROW 281251Z 27005KT 10SM BKN065 BKN085 19/16 A3017 RMK AO2 LTG DSNT SE SLP154 T01890156
KROW 281151Z 24006KT 10SM SCT120 18/15 A3015 RMK AO2 SLP145 60007 70007 T01830150 10239 20178 53005
KROW 281051Z AUTO 16006KT 10SM FEW095 18/15 A3011 RMK AO2 LTG DSNT E AND SE RAE09 SLP134 P0000 T01780150
KROW 281018Z AUTO 12006KT 10SM SCT110 19/14 A3010 RMK AO2 LTG DSNT SE RAE09 P0000 T01890144
KROW 280951Z AUTO 14006KT 10SM VCTS -RA BKN100 OVC120 18/15 A3011 RMK AO2 LTG DSNT E-S RAB10 SLP132 P0002 T01830150
KROW 280931Z AUTO 18009KT 10SM VCTS -RA FEW050 FEW090 BKN110 18/16 A3012 RMK AO2 LTG DSNT E-S RAB10 P0000 T01780156
KROW 280919Z AUTO 19014KT 10SM -RA FEW050 SCT090 SCT110 18/16 A3014 RMK AO2 LTG DSNT E-SW RAB10 P0000 T01780161
KROW 280904Z AUTO 16009KT 10SM VCTS CLR 18/16 A3013 RMK AO2 LTG DSNT ALQDS T01830161
KROW 280851Z AUTO 13010KT 10SM CLR 18/16 A3013 RMK AO2 LTG DSNT E-SW SLP139 60005 T01830161 51014
KROW 280751Z AUTO 10005KT 10SM CLR 20/17 A3012 RMK AO2 LTG DSNT ALQDS RAE31 SLP135 P0004 T02000167
KROW 280651Z AUTO 19008KT 10SM -RA OVC100 20/16 A3010 RMK AO2 LTG DSNT E-S RAB35 SLP128 P0001 T02000156 403110172
KROW 280630Z AUTO 16010KT 10SM VCTS FEW090 BKN110 23/14 A3011 RMK AO2 LTG DSNT E-SW T02280139
KROW 280551Z AUTO 09008G16KT 10SM FEW070 23/14 A3008 RMK AO2 LTG DSNT ALQDS SLP121 T02280139 10306 20222 51007
KROW 280451Z AUTO 28004KT 10SM CLR 23/14 A3007 RMK AO2 LTG DSNT E AND SW AND W SLP120 T02280139
KROW 280351Z AUTO 28003KT 10SM CLR 25/13 A3008 RMK AO2 LTG DSNT NW-E SLP122 T02500133
KROW 280251Z AUTO 29006KT 10SM SCT100 26/14 A3006 RMK AO2 LTG DSNT NW SLP117 T02610144 53021
KROW 280151Z 20004KT 10SM CLR 25/14 A3002 RMK AO2 SLP105 T02500139
KROW 280051Z 20007KT 10SM CLR 28/13 A2999 RMK AO2 SLP095 T02830128
KROW 272351Z 23006KT 10SM CLR 31/11 A2999 RMK AO2 SLP092 T03060106 10311 20283 55010
KROW 272251Z 21005KT 10SM CLR 31/11 A2999 RMK AO2 SLP091 T03060106
KROW 281740Z 2818/2918 16009KT P6SM BKN100 
     FM282200 13008KT P6SM VCTS BKN060CB 
     FM290100 12007KT P6SM VCSH OVC070 
     FM290400 14006KT P6SM BKN100